createdAt,value
2022-11-26T00:02:21.587Z,123.78
2022-11-26T00:04:48.539Z,121.43
2022-11-26T00:07:17.361Z,130.65
2022-11-26T00:09:45.382Z,126.05
2022-11-26T00:12:16.497Z,129.02
2022-11-26T00:14:43.293Z,137.88
2022-11-26T00:17:12.373Z,143.27
2022-11-26T00:19:39.192Z,152.27
2022-11-26T00:22:06.385Z,158.55
2022-11-26T00:24:32.930Z,154.88
2022-11-26T00:27:00.009Z,145.18
2022-11-26T00:29:26.468Z,129.90
2022-11-26T00:31:53.013Z,146.70
2022-11-26T00:34:19.522Z,130.82
2022-11-26T00:36:47.134Z,124.00
2022-11-26T00:39:16.573Z,143.60
2022-11-26T00:41:45.921Z,138.55
2022-11-26T00:44:31.693Z,138.02
2022-11-26T00:46:58.127Z,119.20
2022-11-26T00:49:24.607Z,120.90
2022-11-26T00:51:51.172Z,114.53
2022-11-26T00:54:18.641Z,110.60
2022-11-26T00:56:45.549Z,117.53
2022-11-26T00:59:13.649Z,117.60
2022-11-26T01:01:40.241Z,127.25
2022-11-26T01:04:06.986Z,125.68
2022-11-26T01:06:34.930Z,108.18
2022-11-26T01:09:01.665Z,108.03
2022-11-26T01:11:28.488Z,128.40
2022-11-26T01:13:55.486Z,133.10
2022-11-26T01:16:26.556Z,127.97
2022-11-26T01:18:54.072Z,137.07
2022-11-26T01:21:21.053Z,122.15
2022-11-26T01:23:47.803Z,122.82
2022-11-26T01:26:19.387Z,125.70
2022-11-26T01:28:45.875Z,120.65
2022-11-26T01:31:16.604Z,104.28
2022-11-26T01:33:43.324Z,123.82
2022-11-26T01:36:33.101Z,110.63
2022-11-26T01:39:04.472Z,124.55
2022-11-26T01:41:30.853Z,138.88
2022-11-26T01:43:58.080Z,150.82
2022-11-26T01:46:26.443Z,128.98
2022-11-26T01:48:53.174Z,129.63
2022-11-26T01:51:26.809Z,127.82
2022-11-26T01:53:56.211Z,127.07
2022-11-26T01:56:42.858Z,127.18
2022-11-26T01:59:17.379Z,122.15
2022-11-26T02:01:44.140Z,113.32
2022-11-26T02:04:16.730Z,105.18
2022-11-26T02:06:43.628Z,97.38
2022-11-26T02:09:11.718Z,109.57
2022-11-26T02:11:38.668Z,115.93
2022-11-26T02:14:10.717Z,110.22
2022-11-26T02:16:55.991Z,106.47
2022-11-26T02:19:37.805Z,144.50
2022-11-26T02:22:23.711Z,153.75
2022-11-26T02:24:54.677Z,154.90
2022-11-26T02:27:40.563Z,137.50
2022-11-26T02:30:12.251Z,155.43
2022-11-26T02:32:54.443Z,142.35
2022-11-26T02:35:33.093Z,141.05
2022-11-26T02:38:02.104Z,135.00
2022-11-26T02:40:28.532Z,138.15
2022-11-26T02:42:54.948Z,134.10
2022-11-26T02:45:26.314Z,137.73
2022-11-26T02:47:54.499Z,123.65
2022-11-26T02:50:39.748Z,124.03
2022-11-26T02:53:07.289Z,130.32
2022-11-26T02:55:35.698Z,138.88
2022-11-26T02:58:02.606Z,133.77
2022-11-26T03:00:29.579Z,123.45
2022-11-26T03:02:59.638Z,136.88
2022-11-26T03:05:26.457Z,119.20
2022-11-26T03:07:54.174Z,124.25
2022-11-26T03:10:25.125Z,127.03
2022-11-26T03:12:51.552Z,126.47
2022-11-26T03:15:18.008Z,121.15
2022-11-26T03:17:44.470Z,125.05
2022-11-26T03:20:11.081Z,125.00
2022-11-26T03:22:37.637Z,127.30
2022-11-26T03:25:05.012Z,128.27
2022-11-26T03:27:31.515Z,125.68
2022-11-26T03:29:57.943Z,119.05
2022-11-26T03:32:24.481Z,136.38
2022-11-26T03:34:50.952Z,130.45
2022-11-26T03:37:17.597Z,109.22
2022-11-26T03:39:44.071Z,131.85
2022-11-26T03:42:10.633Z,127.85
2022-11-26T03:44:37.328Z,131.50
2022-11-26T03:47:03.958Z,130.40
2022-11-26T03:49:30.388Z,129.65
2022-11-26T03:51:56.806Z,126.38
2022-11-26T03:54:23.222Z,121.90
2022-11-26T03:56:49.718Z,104.32
2022-11-26T03:59:16.193Z,113.57
2022-11-26T04:01:42.699Z,98.75
2022-11-26T04:04:09.326Z,109.22
2022-11-26T04:06:35.758Z,102.25
2022-11-26T04:09:02.248Z,102.53
2022-11-26T04:11:28.742Z,104.80
2022-11-26T04:13:55.183Z,98.88
2022-11-26T04:16:21.753Z,107.25
2022-11-26T04:18:48.327Z,98.03
2022-11-26T04:21:14.787Z,98.15
2022-11-26T04:23:41.253Z,93.35
2022-11-26T04:26:07.783Z,93.00
2022-11-26T04:28:34.210Z,94.18
2022-11-26T04:31:00.945Z,89.65
2022-11-26T04:33:27.392Z,96.53
2022-11-26T04:35:54.005Z,80.00
2022-11-26T04:38:25.334Z,91.68
2022-11-26T04:43:18.585Z,83.13
2022-11-26T04:45:45.147Z,94.97
2022-11-26T04:48:11.815Z,120.97
2022-11-26T04:50:38.249Z,108.57
2022-11-26T04:53:04.731Z,118.82
2022-11-26T04:55:31.221Z,113.13
2022-11-26T04:57:57.635Z,111.72
2022-11-26T05:00:24.151Z,110.82
2022-11-26T05:02:50.771Z,108.45
2022-11-26T05:05:17.263Z,105.80
2022-11-26T05:07:43.862Z,90.60
2022-11-26T05:10:10.794Z,100.78
2022-11-26T05:12:37.208Z,97.38
2022-11-26T05:15:04.340Z,107.50
2022-11-26T05:17:31.098Z,103.15
2022-11-26T05:19:57.524Z,104.53
2022-11-26T05:22:24.002Z,96.25
2022-11-26T05:24:50.524Z,102.95
2022-11-26T05:27:16.953Z,85.53
2022-11-26T05:29:43.390Z,104.88
2022-11-26T05:32:09.876Z,86.75
2022-11-26T05:34:36.643Z,87.78
2022-11-26T05:37:03.378Z,71.90
2022-11-26T05:39:29.811Z,78.75
2022-11-26T05:41:56.231Z,108.72
2022-11-26T05:44:22.685Z,77.05
2022-11-26T05:46:49.142Z,108.35
2022-11-26T05:49:15.550Z,96.30
2022-11-26T05:51:42.022Z,103.57
2022-11-26T05:54:12.182Z,102.78
2022-11-26T05:56:38.668Z,106.35
2022-11-26T05:59:05.130Z,122.80
2022-11-26T06:01:31.564Z,100.55
2022-11-26T06:03:58.044Z,110.32
2022-11-26T06:06:24.569Z,112.93
2022-11-26T06:08:51.096Z,102.35
2022-11-26T06:11:17.586Z,107.18
2022-11-26T06:13:44.043Z,126.03
2022-11-26T06:16:10.669Z,152.30
2022-11-26T06:18:37.732Z,329.33
2022-11-26T06:21:05.178Z,647.97
2022-11-26T06:23:31.972Z,580.40
2022-11-26T06:25:58.755Z,348.77
2022-11-26T06:28:25.183Z,231.80
2022-11-26T06:30:51.690Z,268.58
2022-11-26T06:33:18.100Z,458.95
2022-11-26T06:35:44.560Z,235.13
2022-11-26T06:38:11.028Z,189.73
2022-11-26T06:40:37.480Z,220.60
2022-11-26T06:43:03.885Z,261.38
2022-11-26T06:45:30.372Z,311.98
2022-11-26T06:47:56.839Z,195.68
2022-11-26T06:50:23.287Z,203.77
2022-11-26T06:52:53.609Z,334.30
2022-11-26T06:55:20.140Z,633.33
2022-11-26T06:57:49.343Z,198.57
2022-11-26T07:00:15.789Z,142.82
2022-11-26T07:02:43.367Z,302.17
2022-11-26T07:05:09.923Z,316.42
2022-11-26T07:07:37.582Z,211.35
2022-11-26T07:10:04.299Z,326.58
2022-11-26T07:12:30.748Z,249.68
2022-11-26T07:14:57.182Z,156.57
2022-11-26T07:17:23.633Z,217.82
2022-11-26T07:19:50.115Z,137.48
2022-11-26T07:22:16.619Z,269.98
2022-11-26T07:24:43.088Z,219.38
2022-11-26T07:27:09.562Z,181.30
2022-11-26T07:29:35.996Z,153.82
2022-11-26T07:32:02.509Z,148.85
2022-11-26T07:34:29.009Z,184.85
2022-11-26T07:36:58.184Z,612.28
2022-11-26T07:39:24.879Z,342.50
2022-11-26T07:41:51.332Z,457.55
2022-11-26T07:44:17.817Z,466.15
2022-11-26T07:46:44.380Z,253.48
2022-11-26T07:49:10.887Z,272.88
2022-11-26T07:51:37.394Z,207.32
2022-11-26T07:54:04.924Z,253.30
2022-11-26T07:56:31.413Z,171.50
2022-11-26T07:58:57.831Z,169.40
2022-11-26T08:01:27.285Z,196.77
2022-11-26T08:03:53.843Z,175.70
2022-11-26T08:06:21.535Z,182.40
2022-11-26T08:08:48.198Z,190.48
2022-11-26T08:11:16.268Z,254.88
2022-11-26T08:13:43.506Z,201.13
2022-11-26T08:16:10.132Z,195.85
2022-11-26T08:18:36.693Z,176.48
2022-11-26T08:21:03.197Z,168.02
2022-11-26T08:23:30.432Z,172.25
2022-11-26T08:26:21.441Z,143.55
2022-11-26T08:28:43.912Z,139.15
2022-11-26T08:31:11.280Z,163.07
2022-11-26T08:33:37.987Z,148.43
2022-11-26T08:36:07.642Z,125.40
2022-11-26T08:38:35.644Z,130.60
2022-11-26T08:41:04.441Z,134.45
2022-11-26T08:44:04.077Z,118.15
2022-11-26T08:46:17.589Z,126.60
2022-11-26T08:48:45.239Z,121.15
2022-11-26T08:51:12.231Z,112.65
2022-11-26T08:53:39.130Z,116.75
2022-11-26T08:56:07.254Z,124.50
2022-11-26T08:58:34.552Z,111.00
2022-11-26T09:01:07.863Z,111.43
2022-11-26T09:03:34.298Z,117.68
2022-11-26T09:06:01.682Z,116.10
2022-11-26T09:08:28.291Z,119.32
2022-11-26T09:10:55.392Z,107.90
2022-11-26T09:13:21.972Z,134.48
2022-11-26T09:15:49.421Z,107.35
2022-11-26T09:18:16.033Z,124.57
2022-11-26T09:20:42.413Z,119.75
2022-11-26T14:18:45.455Z,67.80
2022-11-26T14:21:12.815Z,67.93
2022-11-26T14:23:44.895Z,66.18
2022-11-26T14:26:13.974Z,69.13
2022-11-26T14:28:40.398Z,67.30
2022-11-26T14:31:08.204Z,61.03
2022-11-26T14:33:34.774Z,58.25
2022-11-26T14:36:01.266Z,56.55
2022-11-26T14:38:28.557Z,59.75
2022-11-26T14:40:59.244Z,61.85
2022-11-26T14:43:25.737Z,54.42
2022-11-26T14:46:10.747Z,46.28
2022-11-26T14:48:41.398Z,49.75
2022-11-26T14:51:08.485Z,47.53
2022-11-26T14:53:35.628Z,42.97
2022-11-26T14:56:02.852Z,49.70
2022-11-26T14:58:32.181Z,43.53
2022-11-26T15:01:03.702Z,44.03
2022-11-26T15:03:30.118Z,48.97
2022-11-26T15:05:56.562Z,37.92
2022-11-26T15:08:25.190Z,45.88
2022-11-26T15:10:52.977Z,54.25
2022-11-26T15:13:31.702Z,56.92
2022-11-26T15:16:02.553Z,62.25
2022-11-26T15:18:30.337Z,70.43
2022-11-26T15:20:57.597Z,60.42
2022-11-26T15:23:30.067Z,45.42
2022-11-26T15:25:57.565Z,43.53
2022-11-26T15:28:24.423Z,47.55
2022-11-26T15:30:55.629Z,43.03
2022-11-26T15:33:22.326Z,42.95
2022-11-26T15:35:57.388Z,42.22
2022-11-26T15:38:24.978Z,46.50
2022-11-26T15:40:57.391Z,46.60
2022-11-26T15:43:29.537Z,47.67
2022-11-26T15:46:11.378Z,46.72
2022-11-26T15:48:58.540Z,46.83
2022-11-26T15:51:32.165Z,53.47
2022-11-26T15:54:02.573Z,57.40
2022-11-26T15:56:31.725Z,49.47
2022-11-26T15:59:00.536Z,48.97
2022-11-26T16:01:28.733Z,50.47
2022-11-26T16:03:55.959Z,40.38
2022-11-26T16:06:29.177Z,47.83
2022-11-26T16:09:06.917Z,42.40
2022-11-26T16:11:36.764Z,42.22
2022-11-26T16:14:22.751Z,44.28
2022-11-26T16:16:50.252Z,173.73
2022-11-26T16:19:17.321Z,74.40
2022-11-26T16:21:48.083Z,63.13
2022-11-26T16:24:20.633Z,51.97
2022-11-26T16:27:06.571Z,45.90
2022-11-26T16:29:33.775Z,51.20
2022-11-26T16:32:00.191Z,46.20
2022-11-26T16:34:29.678Z,47.40
2022-11-26T16:37:00.594Z,47.15
2022-11-26T16:39:30.202Z,44.20
2022-11-26T16:41:57.081Z,48.47
2022-11-26T16:44:23.521Z,52.08
2022-11-26T16:46:51.337Z,51.58
2022-11-26T16:49:17.813Z,49.83
2022-11-26T16:51:44.230Z,61.28
2022-11-26T16:54:10.701Z,60.67
2022-11-26T16:56:38.304Z,57.78
2022-11-26T16:59:26.146Z,54.40
2022-11-26T17:01:52.809Z,57.65
2022-11-26T17:04:19.337Z,59.35
2022-11-26T17:06:46.098Z,59.10
2022-11-26T17:09:16.932Z,59.88
2022-11-26T17:11:43.515Z,57.47
2022-11-26T17:14:10.641Z,62.13
2022-11-26T17:16:39.109Z,82.60
2022-11-26T17:19:05.883Z,65.82
2022-11-26T17:21:32.461Z,71.97
2022-11-26T17:23:58.966Z,76.05
2022-11-26T17:26:25.541Z,69.30
2022-11-26T17:28:52.053Z,75.25
2022-11-26T17:31:18.775Z,79.75
2022-11-26T17:33:45.411Z,87.82
2022-11-26T17:36:19.564Z,77.47
2022-11-26T17:38:46.637Z,85.18
2022-11-26T17:41:14.028Z,82.57
2022-11-26T17:43:40.655Z,84.10
2022-11-26T17:46:14.074Z,85.75
2022-11-26T17:48:40.534Z,78.72
2022-11-26T17:51:06.965Z,80.47
2022-11-26T17:53:33.378Z,75.15
2022-11-26T17:55:59.794Z,78.85
2022-11-26T17:58:26.324Z,93.22
2022-11-26T18:00:52.825Z,76.78
2022-11-26T18:03:20.820Z,84.35
2022-11-26T18:05:47.343Z,82.60
2022-11-26T18:08:13.844Z,87.22
2022-11-26T18:10:41.028Z,98.18
2022-11-26T18:13:07.420Z,94.78
2022-11-26T18:15:33.843Z,92.20
2022-11-26T18:18:00.801Z,89.45
2022-11-26T18:20:28.876Z,88.13
2022-11-26T18:22:56.899Z,94.97
2022-11-26T18:25:23.743Z,93.05
2022-11-26T18:27:50.218Z,98.30
2022-11-26T18:30:16.998Z,94.50
2022-11-26T18:32:43.720Z,97.63
2022-11-26T18:35:10.660Z,90.40
2022-11-26T18:37:37.691Z,89.68
2022-11-26T18:40:04.582Z,84.65
2022-11-26T18:42:38.723Z,127.60
2022-11-26T18:45:06.487Z,141.43
2022-11-26T18:47:33.337Z,212.27
2022-11-26T18:49:59.903Z,119.93
2022-11-26T18:52:26.325Z,112.95
2022-11-26T18:54:52.767Z,106.30
2022-11-26T18:57:19.191Z,119.55
2022-11-26T18:59:46.743Z,121.07
2022-11-26T19:02:13.819Z,105.72
2022-11-26T19:04:40.410Z,104.45
2022-11-26T19:07:06.913Z,99.10
2022-11-26T19:09:33.367Z,96.07
2022-11-26T19:11:59.785Z,84.03
2022-11-26T19:14:26.311Z,100.85
2022-11-26T19:16:52.984Z,93.82
2022-11-26T19:19:19.736Z,95.10
2022-11-26T19:21:46.301Z,99.97
2022-11-26T19:24:12.867Z,97.57
2022-11-26T19:26:41.440Z,103.18
2022-11-26T19:29:08.900Z,107.70
2022-11-26T19:31:35.928Z,93.90
2022-11-26T19:34:05.949Z,113.28
2022-11-26T19:36:38.155Z,105.60
2022-11-26T19:39:05.674Z,105.72
2022-11-26T19:41:32.303Z,106.57
2022-11-26T19:44:00.570Z,106.15
2022-11-26T19:46:27.625Z,101.20
2022-11-26T19:48:54.305Z,100.65
2022-11-26T19:51:21.685Z,110.45
2022-11-26T19:53:48.829Z,112.97
2022-11-26T19:56:16.633Z,120.65
2022-11-26T19:58:50.731Z,135.80
2022-11-26T20:01:17.849Z,123.80
2022-11-26T20:03:44.420Z,96.15
2022-11-26T20:06:15.926Z,121.65
2022-11-26T20:08:42.539Z,118.03
2022-11-26T20:11:09.298Z,139.55
2022-11-26T20:13:36.387Z,120.38
2022-11-26T20:16:10.217Z,125.28
2022-11-26T20:18:38.564Z,126.38
2022-11-26T20:21:06.685Z,126.85
2022-11-26T20:23:33.251Z,115.20
2022-11-26T20:25:59.796Z,128.45
2022-11-26T20:28:26.313Z,155.05
2022-11-26T20:30:52.838Z,129.68
2022-11-26T20:33:19.611Z,133.10
2022-11-26T20:35:46.394Z,136.55
2022-11-26T20:38:13.066Z,139.05
2022-11-26T20:40:41.395Z,132.90
2022-11-26T20:43:08.313Z,131.38
2022-11-26T20:45:35.017Z,129.35
2022-11-26T20:48:01.427Z,148.05
2022-11-26T20:50:27.865Z,137.75
2022-11-26T20:52:54.334Z,137.45
2022-11-26T20:55:22.042Z,140.60
2022-11-26T20:57:48.875Z,145.88
2022-11-26T21:00:17.095Z,140.20
2022-11-26T21:02:44.026Z,150.88
2022-11-26T21:05:10.513Z,157.10
2022-11-26T21:07:36.993Z,153.55
2022-11-26T21:10:03.755Z,157.50
2022-11-26T21:12:30.189Z,166.63
2022-11-26T21:14:56.615Z,155.10
2022-11-26T21:17:23.114Z,161.35
2022-11-26T21:19:49.647Z,158.15
2022-11-26T21:22:16.140Z,191.65
2022-11-26T21:24:42.590Z,166.07
2022-11-26T21:27:09.626Z,174.48
2022-11-26T21:29:36.171Z,165.25
2022-11-26T21:32:02.611Z,185.52
2022-11-26T21:34:29.068Z,175.60
2022-11-26T21:36:55.626Z,169.10
2022-11-26T21:39:22.277Z,171.88
2022-11-26T21:41:48.714Z,193.32
2022-11-26T21:44:15.270Z,181.68
2022-11-26T21:46:41.755Z,175.77
2022-11-26T21:49:08.358Z,186.30
2022-11-26T21:51:34.930Z,175.30
2022-11-26T21:54:01.350Z,191.43
2022-11-26T21:56:28.870Z,218.23
2022-11-26T21:58:57.019Z,200.40
2022-11-26T22:01:25.868Z,203.85
2022-11-26T22:03:54.975Z,187.10
2022-11-26T22:06:22.149Z,199.80
2022-11-26T22:08:48.928Z,196.90
2022-11-26T22:11:15.391Z,172.95
2022-11-26T22:13:41.997Z,186.32
2022-11-26T22:16:09.510Z,186.88
2022-11-26T22:18:37.379Z,187.95
2022-11-26T22:21:04.516Z,203.70
2022-11-26T22:23:30.989Z,200.68
2022-11-26T22:25:57.446Z,197.43
2022-11-26T22:28:29.723Z,203.63
2022-11-26T22:30:56.611Z,199.23
2022-11-26T22:33:23.100Z,185.60
2022-11-26T22:35:49.562Z,186.98
2022-11-26T22:38:16.074Z,195.52
2022-11-26T22:40:42.446Z,211.57
2022-11-26T22:43:08.841Z,199.00
2022-11-26T22:45:36.774Z,204.27
2022-11-26T22:48:03.385Z,212.45
2022-11-26T22:50:29.824Z,204.75
2022-11-26T22:52:56.254Z,199.90
2022-11-26T22:55:23.376Z,207.77
2022-11-26T22:57:49.930Z,219.70
2022-11-26T23:00:36.480Z,217.32
2022-11-26T23:05:43.575Z,214.13
2022-11-26T23:08:10.206Z,221.07
2022-11-26T23:10:36.769Z,211.13
2022-11-26T23:13:03.667Z,238.43
2022-11-26T23:15:30.143Z,233.60
2022-11-26T23:17:56.616Z,229.27
2022-11-26T23:20:23.261Z,233.60
2022-11-26T23:22:49.697Z,222.27
2022-11-26T23:25:16.225Z,212.07
2022-11-26T23:27:42.676Z,191.38
2022-11-26T23:30:09.433Z,206.73
2022-11-26T23:32:35.886Z,190.93
2022-11-26T23:35:02.369Z,188.27
2022-11-26T23:37:28.805Z,198.57
2022-11-26T23:39:55.316Z,184.82
2022-11-26T23:42:21.755Z,192.63
2022-11-26T23:44:48.178Z,198.75
2022-11-26T23:47:14.706Z,186.40
2022-11-26T23:49:41.427Z,176.95
2022-11-26T23:52:12.449Z,170.65
2022-11-26T23:54:38.925Z,177.45
2022-11-26T23:57:14.853Z,182.05
2022-11-26T23:59:43.746Z,176.93
